sensor_id;sensor_type;location;lat;lon;timestamp;pressure;altitude;pressure_sealevel;temperature;humidity
10006;BME280;5042;42.626;23.382;2023-04-08T00:00:04;94434.31;;;4.98;100.00
10006;BME280;5042;42.626;23.382;2023-04-08T00:02:32;94433.16;;;4.92;100.00
10006;BME280;5042;42.626;23.382;2023-04-08T00:04:59;94433.41;;;4.81;100.00
10006;BME280;5042;42.626;23.382;2023-04-08T00:07:26;94440.53;;;4.79;100.00
10006;BME280;5042;42.626;23.382;2023-04-08T00:09:52;94434.78;;;4.67;100.00
10006;BME280;5042;42.626;23.382;2023-04-08T00:12:19;94436.44;;;4.68;100.00
10006;BME280;5042;42.626;23.382;2023-04-08T00:14:47;94437.19;;;4.60;100.00
10006;BME280;5042;42.626;23.382;2023-04-08T00:17:14;94437.38;;;4.67;100.00
10006;BME280;5042;42.626;23.382;2023-04-08T00:19:41;94431.16;;;4.60;100.00
10006;BME280;5042;42.626;23.382;2023-04-08T00:22:07;94440.97;;;4.48;100.00
10006;BME280;5042;42.626;23.382;2023-04-08T00:24:34;94443.88;;;4.45;100.00
10006;BME280;5042;42.626;23.382;2023-04-08T00:27:01;94435.78;;;4.48;100.00
10006;BME280;5042;42.626;23.382;2023-04-08T00:29:28;94444.00;;;4.61;100.00
10006;BME280;5042;42.626;23.382;2023-04-08T00:31:56;94449.50;;;4.58;100.00
10006;BME280;5042;42.626;23.382;2023-04-08T00:34:23;94449.63;;;4.57;100.00
10006;BME280;5042;42.626;23.382;2023-04-08T00:36:50;94439.78;;;4.60;100.00
10006;BME280;5042;42.626;23.382;2023-04-08T00:39:17;94442.44;;;4.51;100.00
10006;BME280;5042;42.626;23.382;2023-04-08T00:41:43;94442.88;;;4.46;100.00
10006;BME280;5042;42.626;23.382;2023-04-08T00:44:10;94444.97;;;4.42;100.00
10006;BME280;5042;42.626;23.382;2023-04-08T00:46:38;94395.09;;;4.13;100.00
10006;BME280;5042;42.626;23.382;2023-04-08T00:49:07;94457.22;;;4.50;100.00
10006;BME280;5042;42.626;23.382;2023-04-08T00:51:34;94440.19;;;4.30;100.00
10006;BME280;5042;42.626;23.382;2023-04-08T00:54:01;94449.59;;;4.31;100.00
10006;BME280;5042;42.626;23.382;2023-04-08T00:56:29;94451.06;;;4.33;100.00
10006;BME280;5042;42.626;23.382;2023-04-08T00:58:58;94442.75;;;4.47;100.00
10006;BME280;5042;42.626;23.382;2023-04-08T01:01:28;94458.09;;;4.41;100.00
10006;BME280;5042;42.626;23.382;2023-04-08T01:04:05;94448.69;;;4.22;100.00
10006;BME280;5042;42.626;23.382;2023-04-08T01:06:38;94451.72;;;4.17;100.00
10006;BME280;5042;42.626;23.382;2023-04-08T01:09:07;94455.59;;;4.13;100.00
10006;BME280;5042;42.626;23.382;2023-04-08T01:11:36;94453.06;;;4.21;100.00
10006;BME280;5042;42.626;23.382;2023-04-08T01:14:05;94451.16;;;4.23;100.00
10006;BME280;5042;42.626;23.382;2023-04-08T01:16:36;94452.41;;;4.37;100.00
10006;BME280;5042;42.626;23.382;2023-04-08T01:19:04;94450.13;;;4.34;100.00
10006;BME280;5042;42.626;23.382;2023-04-08T01:21:36;94451.59;;;4.37;100.00
10006;BME280;5042;42.626;23.382;2023-04-08T01:24:07;94446.78;;;4.42;100.00
10006;BME280;5042;42.626;23.382;2023-04-08T01:26:38;94439.66;;;4.44;100.00
10006;BME280;5042;42.626;23.382;2023-04-08T01:29:06;94452.31;;;4.47;100.00
10006;BME280;5042;42.626;23.382;2023-04-08T01:31:35;94450.00;;;4.62;100.00
10006;BME280;5042;42.626;23.382;2023-04-08T01:34:03;94435.19;;;4.54;100.00
10006;BME280;5042;42.626;23.382;2023-04-08T01:36:33;94443.41;;;4.67;100.00
10006;BME280;5042;42.626;23.382;2023-04-08T01:39:01;94435.03;;;4.56;100.00
10006;BME280;5042;42.626;23.382;2023-04-08T01:41:33;94445.50;;;4.90;100.00
10006;BME280;5042;42.626;23.382;2023-04-08T01:44:03;94451.34;;;4.92;100.00
10006;BME280;5042;42.626;23.382;2023-04-08T01:46:31;94448.09;;;4.90;100.00
10006;BME280;5042;42.626;23.382;2023-04-08T01:48:58;94446.56;;;4.79;100.00
10006;BME280;5042;42.626;23.382;2023-04-08T01:51:26;94454.72;;;4.84;100.00
10006;BME280;5042;42.626;23.382;2023-04-08T01:53:53;94450.66;;;4.64;100.00
10006;BME280;5042;42.626;23.382;2023-04-08T01:56:21;94459.81;;;4.50;100.00
10006;BME280;5042;42.626;23.382;2023-04-08T01:58:51;94463.66;;;4.46;100.00
10006;BME280;5042;42.626;23.382;2023-04-08T02:01:21;94459.00;;;4.32;100.00
10006;BME280;5042;42.626;23.382;2023-04-08T02:03:52;94455.31;;;4.16;100.00
10006;BME280;5042;42.626;23.382;2023-04-08T02:06:21;94469.81;;;4.09;100.00
10006;BME280;5042;42.626;23.382;2023-04-08T02:08:48;94473.66;;;4.05;100.00
10006;BME280;5042;42.626;23.382;2023-04-08T02:11:15;94466.06;;;4.03;100.00
10006;BME280;5042;42.626;23.382;2023-04-08T02:13:42;94471.94;;;3.96;100.00
10006;BME280;5042;42.626;23.382;2023-04-08T02:16:15;94468.25;;;3.98;100.00
10006;BME280;5042;42.626;23.382;2023-04-08T02:18:48;94466.88;;;4.04;100.00
10006;BME280;5042;42.626;23.382;2023-04-08T02:21:17;94471.44;;;4.10;100.00
10006;BME280;5042;42.626;23.382;2023-04-08T02:23:48;94451.00;;;4.07;100.00
10006;BME280;5042;42.626;23.382;2023-04-08T02:26:16;94464.56;;;4.19;100.00
10006;BME280;5042;42.626;23.382;2023-04-08T02:28:44;94467.97;;;4.19;100.00
10006;BME280;5042;42.626;23.382;2023-04-08T02:31:16;94465.69;;;4.16;100.00
10006;BME280;5042;42.626;23.382;2023-04-08T02:33:45;94469.19;;;4.25;100.00
10006;BME280;5042;42.626;23.382;2023-04-08T02:36:14;94463.44;;;4.21;100.00
10006;BME280;5042;42.626;23.382;2023-04-08T02:38:46;94461.53;;;4.23;100.00
10006;BME280;5042;42.626;23.382;2023-04-08T02:41:13;94468.34;;;4.24;100.00
10006;BME280;5042;42.626;23.382;2023-04-08T02:43:40;94470.72;;;4.36;100.00
10006;BME280;5042;42.626;23.382;2023-04-08T02:46:08;94467.44;;;4.34;100.00
10006;BME280;5042;42.626;23.382;2023-04-08T02:48:36;94471.97;;;4.32;100.00
10006;BME280;5042;42.626;23.382;2023-04-08T02:51:04;94468.56;;;4.31;100.00
10006;BME280;5042;42.626;23.382;2023-04-08T02:53:31;94468.72;;;4.30;100.00
10006;BME280;5042;42.626;23.382;2023-04-08T02:55:57;94469.97;;;4.43;100.00
10006;BME280;5042;42.626;23.382;2023-04-08T02:58:24;94474.22;;;4.44;100.00
10006;BME280;5042;42.626;23.382;2023-04-08T03:00:51;94475.31;;;4.42;100.00
10006;BME280;5042;42.626;23.382;2023-04-08T03:03:17;94478.34;;;4.55;100.00
10006;BME280;5042;42.626;23.382;2023-04-08T03:05:44;94476.41;;;4.57;100.00
10006;BME280;5042;42.626;23.382;2023-04-08T03:08:12;94479.09;;;4.65;100.00
10006;BME280;5042;42.626;23.382;2023-04-08T03:10:39;94477.00;;;4.69;100.00
10006;BME280;5042;42.626;23.382;2023-04-08T03:13:06;94469.38;;;4.67;100.00
10006;BME280;5042;42.626;23.382;2023-04-08T03:15:33;94468.25;;;4.70;100.00
10006;BME280;5042;42.626;23.382;2023-04-08T03:17:59;94471.97;;;4.67;100.00
10006;BME280;5042;42.626;23.382;2023-04-08T03:20:26;94462.97;;;4.62;100.00
10006;BME280;5042;42.626;23.382;2023-04-08T03:22:53;94463.09;;;4.78;100.00
10006;BME280;5042;42.626;23.382;2023-04-08T03:25:21;94471.72;;;4.79;100.00
10006;BME280;5042;42.626;23.382;2023-04-08T03:27:48;94474.97;;;4.81;100.00
10006;BME280;5042;42.626;23.382;2023-04-08T03:30:15;94478.91;;;4.85;100.00
10006;BME280;5042;42.626;23.382;2023-04-08T03:32:42;94471.91;;;4.85;100.00
10006;BME280;5042;42.626;23.382;2023-04-08T03:35:08;94472.53;;;4.79;100.00
10006;BME280;5042;42.626;23.382;2023-04-08T03:37:35;94478.19;;;4.75;100.00
10006;BME280;5042;42.626;23.382;2023-04-08T03:40:02;94469.66;;;4.64;100.00
10006;BME280;5042;42.626;23.382;2023-04-08T03:42:30;94474.72;;;4.66;100.00
10006;BME280;5042;42.626;23.382;2023-04-08T03:44:58;94472.41;;;4.63;100.00
10006;BME280;5042;42.626;23.382;2023-04-08T03:47:25;94481.25;;;4.52;100.00
10006;BME280;5042;42.626;23.382;2023-04-08T03:49:52;94478.28;;;4.47;100.00
10006;BME280;5042;42.626;23.382;2023-04-08T03:52:20;94479.41;;;4.44;100.00
10006;BME280;5042;42.626;23.382;2023-04-08T03:54:46;94484.06;;;4.41;100.00
10006;BME280;5042;42.626;23.382;2023-04-08T03:57:13;94472.59;;;4.25;100.00
10006;BME280;5042;42.626;23.382;2023-04-08T03:59:41;94470.50;;;4.29;100.00
10006;BME280;5042;42.626;23.382;2023-04-08T04:02:08;94474.19;;;4.27;100.00
10006;BME280;5042;42.626;23.382;2023-04-08T04:04:35;94467.69;;;4.22;100.00
10006;BME280;5042;42.626;23.382;2023-04-08T04:07:02;94467.28;;;4.17;100.00
10006;BME280;5042;42.626;23.382;2023-04-08T05:40:47;94494.00;;;5.76;100.00
10006;BME280;5042;42.626;23.382;2023-04-08T05:43:13;94498.97;;;5.95;100.00
10006;BME280;5042;42.626;23.382;2023-04-08T05:45:40;94487.34;;;6.08;100.00
10006;BME280;5042;42.626;23.382;2023-04-08T05:48:07;94489.47;;;6.21;100.00
10006;BME280;5042;42.626;23.382;2023-04-08T05:50:34;94485.91;;;6.30;100.00
10006;BME280;5042;42.626;23.382;2023-04-08T05:53:01;94493.56;;;6.40;100.00
10006;BME280;5042;42.626;23.382;2023-04-08T05:55:27;94488.00;;;6.26;100.00
10006;BME280;5042;42.626;23.382;2023-04-08T05:57:56;94491.25;;;6.28;100.00
10006;BME280;5042;42.626;23.382;2023-04-08T06:00:22;94484.28;;;6.29;100.00
10006;BME280;5042;42.626;23.382;2023-04-08T06:02:49;94482.50;;;6.37;100.00
10006;BME280;5042;42.626;23.382;2023-04-08T06:05:16;94478.09;;;6.38;100.00
10006;BME280;5042;42.626;23.382;2023-04-08T06:07:43;94493.25;;;6.34;100.00
10006;BME280;5042;42.626;23.382;2023-04-08T06:10:10;94486.38;;;6.25;100.00
10006;BME280;5042;42.626;23.382;2023-04-08T06:12:37;94482.47;;;6.21;100.00
10006;BME280;5042;42.626;23.382;2023-04-08T06:15:06;94490.59;;;6.26;100.00
10006;BME280;5042;42.626;23.382;2023-04-08T06:17:35;94484.59;;;6.26;100.00
10006;BME280;5042;42.626;23.382;2023-04-08T06:20:02;94488.69;;;6.36;100.00
10006;BME280;5042;42.626;23.382;2023-04-08T06:22:29;94486.56;;;6.32;100.00
10006;BME280;5042;42.626;23.382;2023-04-08T06:24:55;94479.72;;;6.31;100.00
10006;BME280;5042;42.626;23.382;2023-04-08T06:27:22;94479.22;;;6.27;100.00
10006;BME280;5042;42.626;23.382;2023-04-08T06:29:49;94488.03;;;6.34;100.00
10006;BME280;5042;42.626;23.382;2023-04-08T06:32:17;94482.00;;;6.42;100.00
10006;BME280;5042;42.626;23.382;2023-04-08T06:34:44;94488.06;;;6.51;100.00
10006;BME280;5042;42.626;23.382;2023-04-08T06:37:11;94485.13;;;6.70;100.00
10006;BME280;5042;42.626;23.382;2023-04-08T06:39:38;94492.94;;;6.87;100.00
10006;BME280;5042;42.626;23.382;2023-04-08T06:42:04;94488.41;;;6.89;100.00
10006;BME280;5042;42.626;23.382;2023-04-08T06:44:31;94488.72;;;6.94;100.00
10006;BME280;5042;42.626;23.382;2023-04-08T06:46:58;94495.53;;;6.95;100.00
10006;BME280;5042;42.626;23.382;2023-04-08T06:49:26;94500.75;;;7.03;100.00
10006;BME280;5042;42.626;23.382;2023-04-08T06:51:53;94502.53;;;7.27;100.00
10006;BME280;5042;42.626;23.382;2023-04-08T06:54:20;94502.63;;;7.50;100.00
10006;BME280;5042;42.626;23.382;2023-04-08T06:56:47;94502.81;;;7.49;100.00
10006;BME280;5042;42.626;23.382;2023-04-08T06:59:14;94500.38;;;7.39;100.00
10006;BME280;5042;42.626;23.382;2023-04-08T07:01:40;94502.34;;;7.37;100.00
10006;BME280;5042;42.626;23.382;2023-04-08T07:04:07;94499.72;;;7.45;100.00
10006;BME280;5042;42.626;23.382;2023-04-08T07:06:35;94499.03;;;7.51;100.00
10006;BME280;5042;42.626;23.382;2023-04-08T07:09:02;94493.63;;;7.61;100.00
10006;BME280;5042;42.626;23.382;2023-04-08T07:11:29;94497.53;;;7.57;100.00
10006;BME280;5042;42.626;23.382;2023-04-08T07:13:56;94500.69;;;7.52;100.00
10006;BME280;5042;42.626;23.382;2023-04-08T07:16:22;94500.59;;;7.69;100.00
10006;BME280;5042;42.626;23.382;2023-04-08T07:18:49;94498.59;;;7.87;100.00
10006;BME280;5042;42.626;23.382;2023-04-08T07:21:16;94503.16;;;7.93;100.00
10006;BME280;5042;42.626;23.382;2023-04-08T07:23:45;94508.22;;;7.86;100.00
10006;BME280;5042;42.626;23.382;2023-04-08T07:26:11;94503.00;;;7.86;100.00
10006;BME280;5042;42.626;23.382;2023-04-08T07:28:39;94507.34;;;8.02;100.00
10006;BME280;5042;42.626;23.382;2023-04-08T07:31:10;94503.06;;;8.10;100.00
10006;BME280;5042;42.626;23.382;2023-04-08T07:33:37;94496.25;;;8.32;100.00
10006;BME280;5042;42.626;23.382;2023-04-08T07:36:04;94516.91;;;8.73;100.00
10006;BME280;5042;42.626;23.382;2023-04-08T07:38:31;94505.38;;;8.67;100.00
10006;BME280;5042;42.626;23.382;2023-04-08T07:41:00;94437.31;;;8.06;100.00
10006;BME280;5042;42.626;23.382;2023-04-08T07:43:26;94519.34;;;8.51;100.00
10006;BME280;5042;42.626;23.382;2023-04-08T07:45:59;94519.31;;;8.82;100.00
10006;BME280;5042;42.626;23.382;2023-04-08T07:48:27;94524.28;;;9.15;100.00
10006;BME280;5042;42.626;23.382;2023-04-08T07:50:54;94526.00;;;9.23;99.23
10006;BME280;5042;42.626;23.382;2023-04-08T07:53:21;94525.69;;;9.41;97.96
10006;BME280;5042;42.626;23.382;2023-04-08T07:55:48;94523.81;;;9.49;100.00
10006;BME280;5042;42.626;23.382;2023-04-08T07:58:16;94526.50;;;9.56;100.00
10006;BME280;5042;42.626;23.382;2023-04-08T08:00:43;94532.47;;;9.80;99.85
10006;BME280;5042;42.626;23.382;2023-04-08T08:03:10;94450.34;;;9.51;93.83
10006;BME280;5042;42.626;23.382;2023-04-08T08:05:37;94535.97;;;10.46;99.96
10006;BME280;5042;42.626;23.382;2023-04-08T08:08:04;94544.84;;;10.45;85.58
10006;BME280;5042;42.626;23.382;2023-04-08T08:10:32;94535.19;;;10.01;85.56
10006;BME280;5042;42.626;23.382;2023-04-08T08:12:58;94545.88;;;9.85;91.55
10006;BME280;5042;42.626;23.382;2023-04-08T08:15:26;94544.16;;;9.92;87.91
10006;BME280;5042;42.626;23.382;2023-04-08T08:17:53;94543.31;;;9.91;84.83
10006;BME280;5042;42.626;23.382;2023-04-08T08:20:20;94521.38;;;9.92;89.56
10006;BME280;5042;42.626;23.382;2023-04-08T08:22:47;94544.22;;;10.13;83.92
10006;BME280;5042;42.626;23.382;2023-04-08T08:25:14;94534.69;;;10.27;89.30
10006;BME280;5042;42.626;23.382;2023-04-08T08:27:41;94536.00;;;10.16;88.37
10006;BME280;5042;42.626;23.382;2023-04-08T08:30:08;94540.16;;;10.11;90.06
10006;BME280;5042;42.626;23.382;2023-04-08T08:32:36;94541.16;;;10.10;88.11
10006;BME280;5042;42.626;23.382;2023-04-08T08:35:03;94552.44;;;9.95;86.17
10006;BME280;5042;42.626;23.382;2023-04-08T08:37:30;94550.84;;;9.94;88.58
10006;BME280;5042;42.626;23.382;2023-04-08T08:39:57;94549.09;;;9.87;87.90
10006;BME280;5042;42.626;23.382;2023-04-08T08:42:25;94550.25;;;9.54;89.91
10006;BME280;5042;42.626;23.382;2023-04-08T08:44:52;94538.03;;;9.32;98.11
10006;BME280;5042;42.626;23.382;2023-04-08T08:47:20;94535.16;;;9.42;95.79
10006;BME280;5042;42.626;23.382;2023-04-08T08:49:48;94551.44;;;9.52;100.00
10006;BME280;5042;42.626;23.382;2023-04-08T08:52:15;94554.88;;;9.67;100.00
10006;BME280;5042;42.626;23.382;2023-04-08T08:54:42;94553.84;;;9.53;100.00
10006;BME280;5042;42.626;23.382;2023-04-08T08:57:16;94562.69;;;9.52;93.78
10006;BME280;5042;42.626;23.382;2023-04-08T08:59:44;94552.84;;;9.40;99.88
10006;BME280;5042;42.626;23.382;2023-04-08T09:02:23;94559.16;;;9.30;100.00
10006;BME280;5042;42.626;23.382;2023-04-08T09:04:57;94555.78;;;8.99;100.00
10006;BME280;5042;42.626;23.382;2023-04-08T09:07:26;94550.78;;;8.89;100.00
10006;BME280;5042;42.626;23.382;2023-04-08T09:09:55;94555.22;;;8.88;100.00
10006;BME280;5042;42.626;23.382;2023-04-08T09:12:22;94556.59;;;8.76;100.00
10006;BME280;5042;42.626;23.382;2023-04-08T09:14:50;94523.25;;;8.55;100.00
10006;BME280;5042;42.626;23.382;2023-04-08T09:17:31;94534.56;;;8.70;100.00
10006;BME280;5042;42.626;23.382;2023-04-08T09:20:08;94564.03;;;9.10;100.00
10006;BME280;5042;42.626;23.382;2023-04-08T09:22:54;94565.88;;;9.25;100.00
10006;BME280;5042;42.626;23.382;2023-04-08T09:25:22;94555.88;;;9.28;100.00
10006;BME280;5042;42.626;23.382;2023-04-08T09:27:49;94556.91;;;9.42;100.00
10006;BME280;5042;42.626;23.382;2023-04-08T09:30:17;94553.03;;;9.53;100.00
10006;BME280;5042;42.626;23.382;2023-04-08T09:32:48;94551.19;;;9.76;100.00
10006;BME280;5042;42.626;23.382;2023-04-08T09:35:17;94549.72;;;9.89;100.00
10006;BME280;5042;42.626;23.382;2023-04-08T09:37:44;94533.38;;;10.31;100.00
10006;BME280;5042;42.626;23.382;2023-04-08T09:40:11;94514.47;;;10.72;100.00
10006;BME280;5042;42.626;23.382;2023-04-08T09:42:43;94536.38;;;11.29;96.44
10006;BME280;5042;42.626;23.382;2023-04-08T09:45:11;94527.47;;;11.52;90.11
10006;BME280;5042;42.626;23.382;2023-04-08T09:47:45;94540.78;;;11.78;85.57
10006;BME280;5042;42.626;23.382;2023-04-08T09:50:14;94527.66;;;12.13;83.38
10006;BME280;5042;42.626;23.382;2023-04-08T09:52:46;94534.88;;;12.46;84.31
10006;BME280;5042;42.626;23.382;2023-04-08T09:55:19;94538.00;;;12.21;80.80
10006;BME280;5042;42.626;23.382;2023-04-08T09:57:51;94489.34;;;11.91;84.73
10006;BME280;5042;42.626;23.382;2023-04-08T10:00:21;94522.28;;;11.93;88.12
10006;BME280;5042;42.626;23.382;2023-04-08T10:02:54;94350.59;;;10.83;81.39
10006;BME280;5042;42.626;23.382;2023-04-08T10:05:23;94523.00;;;12.08;84.07
10006;BME280;5042;42.626;23.382;2023-04-08T10:07:52;94508.78;;;12.03;85.17
10006;BME280;5042;42.626;23.382;2023-04-08T10:10:19;94517.75;;;11.80;81.68
10006;BME280;5042;42.626;23.382;2023-04-08T10:12:46;94520.44;;;11.31;87.11
10006;BME280;5042;42.626;23.382;2023-04-08T10:15:27;94508.94;;;11.03;92.09
10006;BME280;5042;42.626;23.382;2023-04-08T10:17:55;94525.41;;;10.97;92.01
10006;BME280;5042;42.626;23.382;2023-04-08T10:20:43;94497.38;;;10.76;96.31
10006;BME280;5042;42.626;23.382;2023-04-08T10:23:12;94507.94;;;10.83;94.90
10006;BME280;5042;42.626;23.382;2023-04-08T10:25:40;94487.81;;;10.47;91.36
10006;BME280;5042;42.626;23.382;2023-04-08T10:28:24;94511.91;;;10.57;93.96
10006;BME280;5042;42.626;23.382;2023-04-08T10:30:54;94509.03;;;10.74;95.24
10006;BME280;5042;42.626;23.382;2023-04-08T10:33:22;94510.22;;;10.71;90.64
10006;BME280;5042;42.626;23.382;2023-04-08T10:35:53;94513.91;;;10.77;93.16
10006;BME280;5042;42.626;23.382;2023-04-08T10:38:21;94508.06;;;10.96;96.87
10006;BME280;5042;42.626;23.382;2023-04-08T10:40:49;94515.41;;;11.08;94.23
10006;BME280;5042;42.626;23.382;2023-04-08T10:43:17;94499.19;;;10.97;92.09
10006;BME280;5042;42.626;23.382;2023-04-08T10:45:43;94495.97;;;11.02;91.33
10006;BME280;5042;42.626;23.382;2023-04-08T10:50:40;94491.69;;;10.94;91.05
10006;BME280;5042;42.626;23.382;2023-04-08T10:53:07;94499.66;;;10.86;91.49
10006;BME280;5042;42.626;23.382;2023-04-08T10:55:36;94489.31;;;10.78;87.83
10006;BME280;5042;42.626;23.382;2023-04-08T10:58:05;94489.81;;;10.67;88.09
10006;BME280;5042;42.626;23.382;2023-04-08T11:00:33;94452.97;;;10.53;91.28
10006;BME280;5042;42.626;23.382;2023-04-08T11:03:00;94482.25;;;10.78;89.59
10006;BME280;5042;42.626;23.382;2023-04-08T11:05:28;94473.66;;;10.63;89.98
10006;BME280;5042;42.626;23.382;2023-04-08T11:07:55;94485.25;;;10.75;87.32
10006;BME280;5042;42.626;23.382;2023-04-08T11:10:23;94481.53;;;10.85;85.67
10006;BME280;5042;42.626;23.382;2023-04-08T11:12:52;94467.94;;;11.31;93.20
10006;BME280;5042;42.626;23.382;2023-04-08T11:15:20;94476.75;;;11.79;100.00
10006;BME280;5042;42.626;23.382;2023-04-08T11:17:47;94477.22;;;11.90;91.10
10006;BME280;5042;42.626;23.382;2023-04-08T11:20:15;94464.97;;;12.10;94.81
10006;BME280;5042;42.626;23.382;2023-04-08T11:22:42;94478.00;;;12.32;89.82
10006;BME280;5042;42.626;23.382;2023-04-08T11:25:10;94469.16;;;11.98;85.25
10006;BME280;5042;42.626;23.382;2023-04-08T11:27:37;94480.47;;;11.92;86.44
10006;BME280;5042;42.626;23.382;2023-04-08T11:30:08;94474.06;;;12.01;80.50
10006;BME280;5042;42.626;23.382;2023-04-08T11:32:36;94473.69;;;12.11;80.00
10006;BME280;5042;42.626;23.382;2023-04-08T11:35:04;94463.56;;;12.14;82.74
10006;BME280;5042;42.626;23.382;2023-04-08T11:37:38;94420.56;;;11.80;75.56
10006;BME280;5042;42.626;23.382;2023-04-08T11:40:07;94466.06;;;12.22;78.19
10006;BME280;5042;42.626;23.382;2023-04-08T11:42:34;94467.88;;;12.28;77.03
10006;BME280;5042;42.626;23.382;2023-04-08T11:45:10;94473.38;;;12.40;79.44
10006;BME280;5042;42.626;23.382;2023-04-08T11:47:37;94463.84;;;12.33;77.20
10006;BME280;5042;42.626;23.382;2023-04-08T11:50:06;94462.13;;;12.05;76.81
10006;BME280;5042;42.626;23.382;2023-04-08T11:52:43;94470.22;;;12.03;76.46
10006;BME280;5042;42.626;23.382;2023-04-08T11:55:10;94460.50;;;12.04;75.44
10006;BME280;5042;42.626;23.382;2023-04-08T11:57:38;94461.53;;;12.09;76.17
10006;BME280;5042;42.626;23.382;2023-04-08T12:00:06;94465.38;;;12.07;78.36
10006;BME280;5042;42.626;23.382;2023-04-08T12:02:34;94454.72;;;12.28;80.49
10006;BME280;5042;42.626;23.382;2023-04-08T12:05:01;94450.03;;;12.11;75.00
10006;BME280;5042;42.626;23.382;2023-04-08T12:07:28;94438.69;;;12.03;76.67
10006;BME280;5042;42.626;23.382;2023-04-08T12:09:55;94440.81;;;12.35;78.92
10006;BME280;5042;42.626;23.382;2023-04-08T12:12:21;94433.75;;;12.55;79.67
10006;BME280;5042;42.626;23.382;2023-04-08T12:14:49;94444.66;;;12.45;74.92
10006;BME280;5042;42.626;23.382;2023-04-08T12:17:16;94459.84;;;12.43;71.42
10006;BME280;5042;42.626;23.382;2023-04-08T12:19:46;94436.16;;;11.82;73.62
10006;BME280;5042;42.626;23.382;2023-04-08T12:22:13;94447.81;;;12.14;73.28
10006;BME280;5042;42.626;23.382;2023-04-08T12:24:40;94441.16;;;12.18;75.65
10006;BME280;5042;42.626;23.382;2023-04-08T12:27:07;94443.03;;;12.38;72.29
10006;BME280;5042;42.626;23.382;2023-04-08T12:29:34;94436.78;;;12.39;73.33
10006;BME280;5042;42.626;23.382;2023-04-08T12:32:02;94424.38;;;12.19;71.33
10006;BME280;5042;42.626;23.382;2023-04-08T12:34:29;94442.28;;;12.50;73.17
10006;BME280;5042;42.626;23.382;2023-04-08T12:36:58;94429.72;;;12.46;74.09
10006;BME280;5042;42.626;23.382;2023-04-08T12:39:25;94436.00;;;12.58;73.39
10006;BME280;5042;42.626;23.382;2023-04-08T12:41:52;94417.59;;;12.58;75.06
10006;BME280;5042;42.626;23.382;2023-04-08T12:44:19;94425.72;;;12.77;77.42
10006;BME280;5042;42.626;23.382;2023-04-08T12:46:46;94424.81;;;12.36;80.63
10006;BME280;5042;42.626;23.382;2023-04-08T12:49:13;94413.06;;;12.25;79.39
10006;BME280;5042;42.626;23.382;2023-04-08T12:51:40;94423.16;;;12.15;78.49
10006;BME280;5042;42.626;23.382;2023-04-08T12:54:08;94421.75;;;11.71;79.66
10006;BME280;5042;42.626;23.382;2023-04-08T12:56:34;94416.19;;;11.18;83.95
10006;BME280;5042;42.626;23.382;2023-04-08T12:59:01;94411.72;;;11.12;80.70
10006;BME280;5042;42.626;23.382;2023-04-08T13:01:28;94418.28;;;11.29;85.88
10006;BME280;5042;42.626;23.382;2023-04-08T13:03:55;94410.56;;;11.56;80.67
10006;BME280;5042;42.626;23.382;2023-04-08T13:06:21;94413.63;;;11.66;82.59
10006;BME280;5042;42.626;23.382;2023-04-08T13:08:48;94413.09;;;11.84;78.61
10006;BME280;5042;42.626;23.382;2023-04-08T13:11:16;94411.19;;;11.64;77.70
10006;BME280;5042;42.626;23.382;2023-04-08T13:13:43;94398.88;;;11.65;90.40
10006;BME280;5042;42.626;23.382;2023-04-08T13:16:10;94393.47;;;11.73;89.68
10006;BME280;5042;42.626;23.382;2023-04-08T13:18:38;94392.75;;;11.93;90.41
10006;BME280;5042;42.626;23.382;2023-04-08T13:21:05;94390.41;;;12.11;86.80
10006;BME280;5042;42.626;23.382;2023-04-08T13:23:32;94390.06;;;12.34;86.74
10006;BME280;5042;42.626;23.382;2023-04-08T13:25:59;94405.00;;;12.34;74.49
10006;BME280;5042;42.626;23.382;2023-04-08T13:28:27;94401.78;;;12.32;74.98
10006;BME280;5042;42.626;23.382;2023-04-08T13:30:54;94394.94;;;12.50;78.13
10006;BME280;5042;42.626;23.382;2023-04-08T13:33:20;94395.75;;;12.71;78.09
10006;BME280;5042;42.626;23.382;2023-04-08T13:35:47;94395.16;;;12.76;75.20
10006;BME280;5042;42.626;23.382;2023-04-08T13:38:14;94392.31;;;12.64;74.65
10006;BME280;5042;42.626;23.382;2023-04-08T13:40:41;94400.22;;;12.70;72.58
10006;BME280;5042;42.626;23.382;2023-04-08T13:43:08;94364.16;;;12.31;75.59
10006;BME280;5042;42.626;23.382;2023-04-08T13:45:36;94412.34;;;12.58;76.26
10006;BME280;5042;42.626;23.382;2023-04-08T13:48:03;94414.78;;;12.73;73.72
10006;BME280;5042;42.626;23.382;2023-04-08T13:50:30;94415.19;;;12.77;77.35
10006;BME280;5042;42.626;23.382;2023-04-08T13:52:57;94415.97;;;12.57;74.82
10006;BME280;5042;42.626;23.382;2023-04-08T13:55:23;94411.50;;;12.38;77.15
10006;BME280;5042;42.626;23.382;2023-04-08T13:57:50;94413.09;;;12.32;78.34
10006;BME280;5042;42.626;23.382;2023-04-08T14:00:17;94428.63;;;12.20;78.18
10006;BME280;5042;42.626;23.382;2023-04-08T14:02:45;94410.75;;;11.96;81.00
10006;BME280;5042;42.626;23.382;2023-04-08T14:05:12;94413.72;;;11.79;85.57
10006;BME280;5042;42.626;23.382;2023-04-08T14:07:39;94414.22;;;11.61;87.52
10006;BME280;5042;42.626;23.382;2023-04-08T14:10:06;94418.19;;;11.51;89.04
10006;BME280;5042;42.626;23.382;2023-04-08T14:12:33;94416.19;;;11.46;94.49
10006;BME280;5042;42.626;23.382;2023-04-08T14:15:01;94410.56;;;11.56;98.57
10006;BME280;5042;42.626;23.382;2023-04-08T14:17:28;94406.75;;;11.65;95.36
10006;BME280;5042;42.626;23.382;2023-04-08T14:19:56;94410.75;;;11.54;97.37
10006;BME280;5042;42.626;23.382;2023-04-08T14:22:25;94400.28;;;11.61;100.00
10006;BME280;5042;42.626;23.382;2023-04-08T14:24:52;94397.88;;;11.66;99.10
10006;BME280;5042;42.626;23.382;2023-04-08T14:27:18;94399.16;;;11.83;100.00
10006;BME280;5042;42.626;23.382;2023-04-08T14:29:45;94416.34;;;11.44;100.00
10006;BME280;5042;42.626;23.382;2023-04-08T14:32:12;94401.06;;;11.20;100.00
10006;BME280;5042;42.626;23.382;2023-04-08T14:34:38;94402.78;;;11.34;100.00
10006;BME280;5042;42.626;23.382;2023-04-08T14:37:07;94406.91;;;11.22;100.00